Hessel, MI

5:49 PM EDT on May 06, 2015 (GMT -0400)
No. 8 Island | | Change Station
CLOSE
Current Station
Personal Weather Station
Location: Cedarville, MI
Elevation: 587 ft
Nearby Weather Stations

Elev 587 ft 45.98 °N, 84.31 °W | Updated 11 seconds ago

Partly Cloudy
Partly Cloudy
52.6 °F
Feels Like 52.6 °F
N
5.3
Wind Variable Wind from SE
Gusts 12.2 mph

Today
High -- | Low -- °F
--% Chance of Precip.
Yesterday
High -- | Low -- °F
Precip. -- in
6:17 AM 8:51 PM
Waning Gibbous, 92% visible
Pressure 30.17 in
Visibility 10.0 miles
Clouds Clear
Dew Point 44 °F
Humidity 72%
Rainfall 0.00 in
Snow Depth Not available.
UV 4 out of 12
Pollen 10.60 out of 12
Air Quality Not available.
Flu Activity Regional
METAR KCIU 062135Z AUTO 13008KT 10SM CLR 21/M05 A3017 RMK AO1

More Conditions Fewer Conditions

Pressure 30.17 in
Visibility 10.0 miles
Clouds Clear
Dew Point 44 °F
Humidity 72%
Rainfall 0.00 in
Snow Depth Not available.
UV 4 out of 12
Pollen 10.60 out of 12
Air Quality Not available.
Flu Activity Regional
METAR KCIU 062135Z AUTO 13008KT 10SM CLR 21/M05 A3017 RMK AO1

More Conditions Fewer Conditions

Nowcast | as of 5:00 PM EDT on May 6, 2015

At 6 PM...mostly clear. Temperature 52. East winds 11 mph. At 8 PM...partly cloudy. Temperature 51. East winds 9 mph. At 10 PM...partly cloudy. Temperature 48. East winds 8 mph. At 12 am...partly cloudy. Temperature 47. East winds 8 mph.

×

10-Day Weather Forecast

Almanac

Astronomy

May. 06, 2015 Rise Set
Actual Time
Civil Twilight
Nautical Twilight
Astronomical Twilight
Moon
Length of Visible Light
Length of Day
Tomorrow will be .
, % of the Moon is Illuminated

Today's Extremes

State Highs State Lows

Community

WunderPhotos

Upload Photos

1,819,022 photos uploaded!

WunderBlogs® & News

Nearby

Air Quality

  Air Quality AQ Index Pollutant
Not available.

Snow Depth

Station Depth Elevation

Earthquake Activity

City Distance Mag. Time & Date
Minimum magnitude displayed is 2.5.

Coastal Water Temperatures

Place Temperature

Stations

Nearby Weather Stations

Station Location Temp. Windchill Dew Point Humidity Wind Precip. Elev Updated Type